Meteo Giornale » Osservazioni meteo Francia » Tolosa-Blagnac
ore: 23:00 - Osservazioni Meteo Tolosa-Blagnac
Lat. 43° 38' N Lon. 1° 22' E Alt. 152 metri s.l.m.
23 °C
Molto Nuvoloso
Temp. 24 Ore
16 °C
30 °C
Nord
13 Km/h
Dew point 17 °C
Umidità 68 %
Visibilità 10 Km
Il sole sorge alle ore 07:18
Il sole tramonta alle ore 20:30
| Data e Ora | Cielo e Fenomeni | T °C | DP °C | Um. % | Pres. hPa | Vis. km | Vento km/h | |
|---|---|---|---|---|---|---|---|---|
| Oggi h: 23:00 | Molto Nuvoloso | 23 | 17 | 68 | 1021 | 10 | N 13 | |
| Oggi h: 22:30 | Temporale | 26 | 14 | 47 | 1020 | 10 | N 14.8 | |
| Oggi h: 22:00 | Sereno | 26 | 15 | 50 | 1020 | 10 | N/NO 14.8 | |
| Oggi h: 21:30 | Sereno | 26 | 14 | 47 | 1020 | 10 | N/NO 14.8 | |
| Oggi h: 21:00 | Sereno | 27 | 15 | 47 | 1019 | 10 | N/NO 18.5 | |
| Oggi h: 20:30 | Sereno | 27 | 14 | 44 | 1019 | 10 | NO 16.7 | |
| Oggi h: 20:00 | Sereno | 28 | 14 | 42 | 1019 | 10 | NO 18.5 | |
| Oggi h: 19:30 | Sereno | 28 | 13 | 39 | 1019 | 10 | N/NO 18.5 | |
| Oggi h: 19:00 | Sereno | 29 | 13 | 37 | 1018 | 10 | N/NO 16.7 | |
| Oggi h: 18:30 | Sereno | 29 | 14 | 39 | 1019 | 10 | N/NO 18.5 | |
| Oggi h: 18:00 | Sereno | 29 | 14 | 39 | 1019 | 10 | N/NO 13 | |
| Oggi h: 17:30 | Sereno | 29 | 14 | 39 | 1019 | 10 | NO 18.5 | |
| Oggi h: 17:00 | Sereno | 30 | 14 | 37 | 1019 | 10 | N/NO 16.7 | |
| Oggi h: 16:30 | Sereno | 30 | 13 | 35 | 1019 | 10 | N 13 | |
| Oggi h: 16:00 | Sereno | 30 | 13 | 35 | 1019 | 10 | N/NO 13 | |
| Oggi h: 15:30 | Sereno | 29 | 13 | 37 | 1019 | 10 | N 11.1 | |
| Oggi h: 15:00 | Sereno | 29 | 13 | 37 | 1019 | 10 | N 11.1 | |
| Oggi h: 14:30 | Sereno | 29 | 12 | 35 | 1019 | 10 | N 7.4 | |
| Oggi h: 14:00 | Sereno | 28 | 12 | 37 | 1020 | 10 | N 9.3 | |
| Oggi h: 13:30 | Poco Nuvoloso | 28 | 12 | 37 | 1020 | 10 | N/NE 11.1 | |
| Oggi h: 13:00 | Sereno | 27 | 13 | 42 | 1020 | 10 | E/NE 11.1 | |
| Oggi h: 12:30 | Sereno | 27 | 12 | 39 | 1021 | 10 | E/NE 11.1 | |
| Oggi h: 12:00 | Poco Nuvoloso | 26 | 13 | 44 | 1021 | 10 | NE 11.1 | |
| Oggi h: 11:30 | Sereno | 25 | 13 | 47 | 1021 | 10 | NE 7.4 | |
| Oggi h: 11:00 | Sereno | 23 | 13 | 53 | 1021 | 10 | N 3.7 | |
| Oggi h: 10:30 | Sereno | 22 | 13 | 56 | 1021 | 10 | N 3.7 | |
| Oggi h: 10:00 | Sereno | 21 | 13 | 60 | 1021 | 10 | N 3.7 | |
| Oggi h: 09:30 | Poco Nuvoloso | 20 | 13 | 64 | 1021 | 10 | N 3.7 | |
| Oggi h: 09:00 | Sereno | 19 | 13 | 68 | 1021 | 10 | N 5.5 | |
| Oggi h: 08:30 | Sereno | 18 | 13 | 72 | 1021 | 10 | NO 7.4 | |
| Oggi h: 08:00 | Sereno | 16 | 13 | 82 | 1021 | 10 | N 3.7 | |
| Oggi h: 07:30 | Sereno | 16 | 13 | 82 | 1021 | 10 | N 5.5 | |
| Oggi h: 07:00 | Sereno | 17 | 13 | 77 | 1021 | 10 | N 5.5 | |
| Oggi h: 06:30 | Sereno | 17 | 13 | 77 | 1021 | 10 | N 3.7 | |
| Oggi h: 06:00 | Sereno | 17 | 13 | 77 | 1021 | 10 | N 5.5 | |
| Oggi h: 05:30 | Sereno | 17 | 13 | 77 | 1021 | 10 | N 5.5 | |
| Oggi h: 05:00 | Sereno | 17 | 13 | 77 | 1021 | 10 | NO 13 | |
| Oggi h: 04:30 | Sereno | 18 | 12 | 67 | 1021 | 10 | NO 9.3 | |
| Oggi h: 04:00 | Sereno | 19 | 13 | 68 | 1021 | 10 | NO 13 | |
| Oggi h: 03:30 | Sereno | 19 | 13 | 68 | 1022 | 10 | NO 11.1 | |
| Oggi h: 03:00 | Sereno | 19 | 13 | 68 | 1022 | 10 | O/NO 11.1 | |
| Oggi h: 02:30 | Sereno | 19 | 13 | 68 | 1022 | 10 | N 5.5 | |
| Oggi h: 02:00 | Sereno | 19 | 14 | 72 | 1022 | 10 | N 5.5 | |
| Oggi h: 01:30 | Sereno | 19 | 14 | 72 | 1022 | 10 | S 9.3 | |
| Oggi h: 01:00 | Sereno | 21 | 14 | 64 | 1022 | 10 | S/SO 7.4 | |
| Oggi h: 00:30 | Sereno | 22 | 14 | 60 | 1022 | 10 | O 13 | |
| Oggi h: 00:00 | Sereno | 23 | 14 | 56 | 1022 | 10 | O 14.8 | |



